AEA1LC LEGE-LEIB
Flight info
| Callsign | AEA1LC |
|---|---|
| Flight time | N/A |
| Altitude | 29000 |
| Route | BGR N855 POS |
| Aircraft | B738/M-SDE2E3FGHIRWXY/LB1 |
Departure
| Time | 2026-04-29 21:29 |
|---|---|
| Airport | Girona-Costa Brava Airport (LEGE) |
Arrival
| Time | N/A |
|---|---|
| Airport | Ibiza Airport (LEIB) |
| Time | Latitude | Longitude | Altitude | Speed | Heading |
|---|---|---|---|---|---|
| 2026-04-29 21:27 | 41.89559 | 2.76073 | 473 ft | 16 kts | 230° |
| 2026-04-29 21:28 | 41.89510 | 2.75940 | 473 ft | 15 kts | 263° |
| 2026-04-29 21:28 | 41.89519 | 2.75854 | 473 ft | 4 kts | 290° |
| 2026-04-29 21:28 | 41.89544 | 2.75847 | 473 ft | 5 kts | 8° |
| 2026-04-29 21:28 | 41.89637 | 2.75881 | 473 ft | 34 kts | 15° |
| 2026-04-29 21:29 | 41.90102 | 2.76056 | 473 ft | 100 kts | 16° |
| 2026-04-29 21:29 | 41.90959 | 2.76380 | 473 ft | 154 kts | 16° |
| 2026-04-29 21:29 | 41.92050 | 2.76790 | 872 ft | 165 kts | 15° |
| 2026-04-29 21:29 | 41.93186 | 2.77202 | 1417 ft | 172 kts | 15° |
| 2026-04-29 21:30 | 41.94325 | 2.77641 | 2072 ft | 171 kts | 17° |
| 2026-04-29 21:30 | 41.95468 | 2.78118 | 2570 ft | 176 kts | 17° |
| 2026-04-29 21:30 | 41.96657 | 2.78567 | 3113 ft | 178 kts | 15° |
| 2026-04-29 21:30 | 41.97850 | 2.79005 | 3631 ft | 181 kts | 15° |
| 2026-04-29 21:31 | 41.99107 | 2.79478 | 4013 ft | 193 kts | 16° |
| 2026-04-29 21:31 | 42.00440 | 2.79987 | 4367 ft | 207 kts | 16° |
| 2026-04-29 21:31 | 42.01897 | 2.80542 | 4727 ft | 224 kts | 16° |
| 2026-04-29 21:31 | 42.03411 | 2.81182 | 5235 ft | 234 kts | 26° |
| 2026-04-29 21:32 | 42.04643 | 2.82568 | 5893 ft | 236 kts | 58° |
| 2026-04-29 21:32 | 42.05210 | 2.84618 | 6539 ft | 238 kts | 84° |
| 2026-04-29 21:32 | 42.05167 | 2.86844 | 7193 ft | 240 kts | 101° |
| 2026-04-29 21:32 | 42.04573 | 2.88921 | 7795 ft | 243 kts | 127° |
| 2026-04-29 21:33 | 42.03290 | 2.90387 | 8428 ft | 245 kts | 154° |
| 2026-04-29 21:33 | 42.01745 | 2.91297 | 9043 ft | 247 kts | 156° |
| 2026-04-29 21:33 | 42.00346 | 2.92650 | 9614 ft | 250 kts | 126° |
| 2026-04-29 21:33 | 41.99572 | 2.94688 | 10225 ft | 251 kts | 107° |
| 2026-04-29 21:34 | 41.99115 | 2.96988 | 10832 ft | 254 kts | 103° |
| 2026-04-29 21:34 | 41.98717 | 2.99299 | 11441 ft | 256 kts | 103° |
| 2026-04-29 21:34 | 41.98311 | 3.01636 | 11879 ft | 266 kts | 103° |
| 2026-04-29 21:34 | 41.97865 | 3.04146 | 12227 ft | 281 kts | 103° |
| 2026-04-29 21:35 | 41.97390 | 3.06750 | 12560 ft | 296 kts | 104° |
| 2026-04-29 21:35 | 41.96881 | 3.09505 | 12897 ft | 311 kts | 104° |
| 2026-04-29 21:35 | 41.96325 | 3.12352 | 13368 ft | 320 kts | 107° |
| 2026-04-29 21:35 | 41.95447 | 3.15138 | 13963 ft | 326 kts | 122° |
| 2026-04-29 21:36 | 41.93998 | 3.17432 | 14607 ft | 329 kts | 139° |
| 2026-04-29 21:36 | 41.92084 | 3.19130 | 15267 ft | 332 kts | 153° |
| 2026-04-29 21:36 | 41.89938 | 3.20289 | 15901 ft | 335 kts | 164° |
| 2026-04-29 21:36 | 41.87628 | 3.20721 | 16537 ft | 338 kts | 179° |
| 2026-04-29 21:37 | 41.85263 | 3.20664 | 17150 ft | 342 kts | 182° |
| 2026-04-29 21:37 | 41.82904 | 3.20489 | 17755 ft | 345 kts | 183° |
| 2026-04-29 21:37 | 41.80484 | 3.20297 | 18361 ft | 348 kts | 183° |
| 2026-04-29 21:37 | 41.78059 | 3.20128 | 18950 ft | 351 kts | 182° |
| 2026-04-29 21:38 | 41.75600 | 3.19980 | 19528 ft | 354 kts | 182° |
| 2026-04-29 21:38 | 41.73143 | 3.19849 | 20088 ft | 357 kts | 182° |
| 2026-04-29 21:38 | 41.70665 | 3.19727 | 20632 ft | 360 kts | 182° |
| 2026-04-29 21:38 | 41.68152 | 3.19606 | 21163 ft | 363 kts | 182° |
| 2026-04-29 21:39 | 41.65620 | 3.19486 | 21680 ft | 366 kts | 182° |
| 2026-04-29 21:39 | 41.63057 | 3.19365 | 22189 ft | 369 kts | 182° |
| 2026-04-29 21:39 | 41.60489 | 3.19243 | 22682 ft | 372 kts | 182° |
| 2026-04-29 21:39 | 41.57909 | 3.19121 | 23160 ft | 374 kts | 182° |
| 2026-04-29 21:40 | 41.55278 | 3.18997 | 23628 ft | 377 kts | 182° |
| 2026-04-29 21:40 | 41.52651 | 3.18873 | 24084 ft | 380 kts | 182° |
| 2026-04-29 21:40 | 41.50017 | 3.18749 | 24526 ft | 382 kts | 182° |
| 2026-04-29 21:40 | 41.47322 | 3.18621 | 24966 ft | 385 kts | 182° |
| 2026-04-29 21:41 | 41.44649 | 3.18479 | 25376 ft | 388 kts | 182° |
| 2026-04-29 21:41 | 41.41965 | 3.18347 | 25801 ft | 390 kts | 182° |
| 2026-04-29 21:41 | 41.39239 | 3.18220 | 26240 ft | 392 kts | 182° |
| 2026-04-29 21:41 | 41.36529 | 3.18097 | 26636 ft | 394 kts | 182° |
| 2026-04-29 21:42 | 41.33749 | 3.17970 | 27021 ft | 396 kts | 182° |
| 2026-04-29 21:42 | 41.31009 | 3.17844 | 27392 ft | 399 kts | 182° |
| 2026-04-29 21:42 | 41.28219 | 3.17715 | 27764 ft | 401 kts | 182° |
| 2026-04-29 21:42 | 41.25418 | 3.17586 | 28125 ft | 403 kts | 182° |
| 2026-04-29 21:43 | 41.22612 | 3.17455 | 28474 ft | 406 kts | 182° |
| 2026-04-29 21:43 | 41.19778 | 3.17323 | 28816 ft | 408 kts | 182° |
| 2026-04-29 21:43 | 41.16916 | 3.17189 | 28997 ft | 410 kts | 182° |
| 2026-04-29 21:44 | 41.11167 | 3.16922 | 29003 ft | 418 kts | 182° |
| 2026-04-29 21:44 | 41.05336 | 3.16654 | 29001 ft | 421 kts | 182° |
| 2026-04-29 21:45 | 40.99423 | 3.16382 | 29002 ft | 426 kts | 182° |
| 2026-04-29 21:45 | 40.93461 | 3.16105 | 29001 ft | 431 kts | 182° |
| 2026-04-29 21:46 | 40.87461 | 3.15825 | 29000 ft | 433 kts | 182° |
| 2026-04-29 21:46 | 40.81488 | 3.15547 | 29002 ft | 426 kts | 182° |
| 2026-04-29 21:47 | 40.76130 | 3.15296 | 29001 ft | 426 kts | 182° |
| 2026-04-29 21:47 | 40.70046 | 3.15016 | 29002 ft | 419 kts | 182° |
| 2026-04-29 21:48 | 40.64227 | 3.14749 | 29001 ft | 415 kts | 182° |
| 2026-04-29 21:48 | 40.58838 | 3.14500 | 29003 ft | 415 kts | 182° |
| 2026-04-29 21:49 | 40.53009 | 3.14228 | 29002 ft | 420 kts | 182° |
| 2026-04-29 21:49 | 40.47127 | 3.13956 | 29001 ft | 423 kts | 182° |
| 2026-04-29 21:50 | 40.41228 | 3.13684 | 29002 ft | 427 kts | 182° |
| 2026-04-29 21:50 | 40.35278 | 3.13414 | 29000 ft | 426 kts | 182° |
| 2026-04-29 21:51 | 40.29385 | 3.13143 | 29002 ft | 421 kts | 182° |
| 2026-04-29 21:51 | 40.20547 | 3.12740 | 29001 ft | 425 kts | 182° |
| 2026-04-29 21:52 | 40.14594 | 3.12468 | 29000 ft | 426 kts | 182° |
| 2026-04-29 21:52 | 40.08652 | 3.12194 | 29002 ft | 427 kts | 182° |
| 2026-04-29 21:53 | 40.02719 | 3.11923 | 29000 ft | 423 kts | 182° |
| 2026-04-29 21:53 | 39.96941 | 3.11639 | 29001 ft | 415 kts | 184° |
| 2026-04-29 21:54 | 39.91303 | 3.10193 | 29003 ft | 416 kts | 201° |
| 2026-04-29 21:54 | 39.86051 | 3.06886 | 29001 ft | 420 kts | 208° |
| 2026-04-29 21:55 | 39.80980 | 3.03148 | 29000 ft | 420 kts | 210° |
| 2026-04-29 21:55 | 39.75931 | 2.99378 | 29001 ft | 419 kts | 210° |
| 2026-04-29 21:56 | 39.70860 | 2.95636 | 29002 ft | 420 kts | 210° |
| 2026-04-29 21:56 | 39.65720 | 2.91886 | 29002 ft | 422 kts | 209° |